Time;durP1;ratioP1;P1;durP2;ratioP2;P2;SDS_P1;SDS_P2;PMS_P1;PMS_P2;Temp;Humidity;BMP_temperature;BMP_pressure;BME280_temperature;BME280_humidity;BME280_pressure;Samples;Min_cycle;Max_cycle;Signal;HPM_P1;HPM_P2
2022/05/21 00:00:41;;;;;;;;;2.67;2.00;;;;;18.59;52.83;101828.63;5089544;27;44884;-73
2022/05/21 00:03:09;;;;;;;;;2.67;2.00;;;;;18.58;52.72;101839.44;5086114;28;45342;-74
2022/05/21 00:05:35;;;;;;;;;3.00;2.33;;;;;18.49;52.68;101807.75;5092563;28;45360;-72
2022/05/21 00:08:00;;;;;;;;;5.33;4.33;;;;;18.59;52.53;101836.75;5089624;28;45227;-73
2022/05/21 00:10:28;;;;;;;;;1.67;1.00;;;;;18.59;52.51;101828.63;5073554;28;44946;-73
2022/05/21 00:12:54;;;;;;;;;6.00;4.00;;;;;18.21;52.62;101756.06;5089864;28;45371;-73
2022/05/21 00:15:22;;;;;;;;;4.67;4.00;;;;;18.53;52.72;101817.72;5087554;28;46084;-70
2022/05/21 00:17:48;;;;;;;;;3.00;2.00;;;;;18.35;52.80;101785.97;5090356;28;45510;-72
2022/05/21 00:22:58;;;;;;;;;3.33;2.33;;;;;18.48;52.72;101802.31;5091991;28;45309;-75
2022/05/21 00:25:25;;;;;;;;;3.33;2.33;;;;;18.51;52.84;101824.00;5089514;28;46515;-71
2022/05/21 00:27:51;;;;;;;;;4.33;2.67;;;;;18.28;53.05;101772.34;5093519;28;45308;-71
2022/05/21 00:30:17;;;;;;;;;4.00;2.67;;;;;18.34;52.98;101797.66;5088642;28;45365;-73
2022/05/21 00:32:43;;;;;;;;;4.67;2.67;;;;;18.22;52.85;101784.00;5083421;28;45771;-72
2022/05/21 00:35:09;;;;;;;;;3.33;3.33;;;;;18.56;53.03;101833.06;5091601;28;46371;-73
2022/05/21 00:37:35;;;;;;;;;6.33;3.33;;;;;18.56;53.16;101841.19;5084303;28;46535;-72
2022/05/21 00:40:00;;;;;;;;;2.00;2.00;;;;;18.39;53.11;101817.56;5086952;28;45376;-71
2022/05/21 00:42:26;;;;;;;;;2.00;2.00;;;;;18.49;53.41;101840.22;5092966;28;45009;-72
2022/05/21 00:44:51;;;;;;;;;3.67;3.00;;;;;18.47;53.32;101844.72;5092414;28;45223;-72
2022/05/21 00:47:17;;;;;;;;;7.00;2.67;;;;;18.23;53.78;101797.56;5079114;28;45175;-71
2022/05/21 00:49:43;;;;;;;;;3.00;3.00;;;;;18.29;53.47;101821.03;5071072;28;45324;-71
2022/05/21 00:52:19;;;;;;;;;4.67;1.00;;;;;18.22;53.57;101801.13;5093199;28;45343;-77
2022/05/21 00:54:49;;;;;;;;;4.00;3.00;;;;;18.41;53.90;101839.22;5071908;27;45449;-72
2022/05/21 00:57:18;;;;;;;;;2.00;2.00;;;;;18.31;53.72;101830.09;5081844;27;45062;-71
2022/05/21 00:59:49;;;;;;;;;2.00;2.00;;;;;18.35;54.00;101844.59;5086524;28;45421;-72
2022/05/21 01:02:27;;;;;;;;;3.00;1.67;;;;;18.08;54.30;101800.06;5089683;28;45137;-71
2022/05/21 01:04:56;;;;;;;;;5.00;4.00;;;;;18.11;54.53;101810.00;5077547;28;46296;-70
2022/05/21 01:07:23;;;;;;;;;2.67;2.00;;;;;18.23;54.63;101835.41;5086000;28;45328;-72
2022/05/21 01:09:54;;;;;;;;;4.67;3.00;;;;;18.07;54.67;101810.88;5083891;28;45463;-72
2022/05/21 01:12:23;;;;;;;;;3.00;3.00;;;;;18.17;54.57;101831.75;5082853;28;45643;-74
2022/05/21 01:14:51;;;;;;;;;3.67;2.67;;;;;18.15;54.89;101837.13;5077629;28;45714;-72
2022/05/21 01:17:20;;;;;;;;;3.00;2.00;;;;;18.13;54.83;101844.31;5068087;28;45322;-75
2022/05/21 01:20:09;;;;;;;;;3.00;3.00;;;;;18.14;54.48;101832.59;5075353;28;45346;-72
2022/05/21 01:22:45;;;;;;;;;1.67;1.67;;;;;18.16;54.59;101833.50;5067885;28;45719;-72
2022/05/21 01:25:17;;;;;;;;;4.33;3.00;;;;;18.21;54.50;101842.63;5087758;28;46017;-71
2022/05/21 01:27:44;;;;;;;;;2.00;2.00;;;;;18.21;54.48;101838.97;5089193;28;45509;-70
2022/05/21 01:30:15;;;;;;;;;2.67;2.00;;;;;18.22;54.47;101843.53;5087886;28;45291;-71
2022/05/21 01:32:43;;;;;;;;;3.67;3.00;;;;;18.11;54.51;101840.66;5088118;28;45792;-72
2022/05/21 01:35:10;;;;;;;;;2.00;2.00;;;;;18.15;54.32;101839.81;5083807;28;45785;-72
2022/05/21 01:37:36;;;;;;;;;3.33;3.33;;;;;18.16;54.44;101832.63;5056219;28;45575;-73
2022/05/21 01:40:01;;;;;;;;;3.00;2.00;;;;;17.92;54.29;101789.94;5091241;28;45075;-72
2022/05/21 01:42:26;;;;;;;;;3.67;2.33;;;;;17.63;54.30;101756.19;5087210;28;45020;-71
2022/05/21 01:44:52;;;;;;;;;3.00;2.00;;;;;17.69;54.44;101777.00;5086989;28;46036;-71
2022/05/21 01:47:20;;;;;;;;;4.67;2.00;;;;;18.08;54.98;101839.72;5090662;28;45103;-72
2022/05/21 01:49:45;;;;;;;;;2.67;2.67;;;;;17.95;54.57;101811.59;5083100;28;45171;-73
2022/05/21 01:52:13;;;;;;;;;4.00;3.00;;;;;17.89;54.41;101809.75;5088476;28;45458;-71
2022/05/21 01:54:38;;;;;;;;;6.00;4.67;;;;;17.76;54.40;101778.00;5083693;28;45699;-72
2022/05/21 01:57:06;;;;;;;;;3.33;2.00;;;;;18.05;54.15;101827.09;5087589;28;45215;-74
2022/05/21 01:59:32;;;;;;;;;5.33;3.00;;;;;18.11;54.47;101832.53;5090443;28;45009;-74
2022/05/21 02:01:59;;;;;;;;;5.00;1.00;;;;;17.92;54.48;101781.81;5087713;28;45035;-72
2022/05/21 02:04:24;;;;;;;;;3.00;2.67;;;;;17.76;53.97;101767.19;5087028;28;45970;-72
2022/05/21 02:06:50;;;;;;;;;2.00;2.00;;;;;18.13;54.17;101819.03;5087893;28;45263;-74
2022/05/21 02:09:16;;;;;;;;;5.00;2.00;;;;;17.94;54.38;101796.28;5085790;28;45104;-71
2022/05/21 02:11:41;;;;;;;;;5.00;3.67;;;;;17.78;54.34;101769.00;5085600;28;45589;-71
2022/05/21 02:14:08;;;;;;;;;2.00;2.00;;;;;17.98;54.18;101800.84;5083491;28;46298;-75
2022/05/21 02:16:34;;;;;;;;;2.00;2.00;;;;;17.86;53.94;101785.34;5089838;27;45409;-72
2022/05/21 02:19:01;;;;;;;;;4.33;2.67;;;;;18.13;53.84;101830.78;5085336;28;45309;-72
2022/05/21 02:21:28;;;;;;;;;3.00;3.00;;;;;17.79;53.59;101781.66;5084800;27;45163;-72
2022/05/21 02:23:53;;;;;;;;;5.00;2.33;;;;;17.99;53.92;101813.47;5088216;28;46219;-72
2022/05/21 02:26:19;;;;;;;;;2.00;2.00;;;;;18.09;53.83;101833.44;5084808;28;45180;-72
2022/05/21 02:28:44;;;;;;;;;2.00;1.67;;;;;18.11;53.90;101840.66;5085252;28;45714;-71
2022/05/21 02:31:09;;;;;;;;;5.00;3.00;;;;;18.14;54.05;101837.09;5081947;28;45374;-73
2022/05/21 02:33:34;;;;;;;;;4.00;2.33;;;;;18.00;53.88;101804.47;5085356;27;45508;-72
2022/05/21 02:36:00;;;;;;;;;3.00;2.00;;;;;18.14;53.91;101831.69;5073241;28;45083;-71
2022/05/21 02:41:16;;;;;;;;;3.00;2.00;;;;;18.18;53.82;101830.81;5090573;28;45054;-71
2022/05/21 02:43:43;;;;;;;;;2.67;2.00;;;;;17.87;53.55;101795.31;5086374;27;45542;-73
2022/05/21 02:46:09;;;;;;;;;2.00;2.00;;;;;17.92;53.78;101812.50;5082552;28;45462;-70
2022/05/21 02:48:35;;;;;;;;;3.67;2.00;;;;;18.03;53.98;101835.19;5092054;28;45040;-72
2022/05/21 02:51:00;;;;;;;;;2.00;1.67;;;;;17.93;53.78;101813.38;5085520;28;45542;-73
2022/05/21 02:53:25;;;;;;;;;4.67;4.00;;;;;17.93;53.70;101803.47;5079524;28;45285;-71
2022/05/21 02:55:53;;;;;;;;;3.00;2.00;;;;;17.83;53.53;101785.28;5078875;28;45626;-74
2022/05/21 02:58:20;;;;;;;;;1.00;1.00;;;;;18.12;53.51;101841.59;5075918;28;45401;-70
2022/05/21 03:00:45;;;;;;;;;4.00;2.67;;;;;17.82;53.53;101784.38;5089799;28;45162;-71
2022/05/21 03:03:11;;;;;;;;;3.33;2.33;;;;;18.15;53.24;101841.59;5078389;28;45346;-71
2022/05/21 03:05:36;;;;;;;;;3.00;3.00;;;;;18.10;53.07;101838.88;5086736;28;45260;-72
2022/05/21 03:10:20;;;;;;;;;3.67;3.00;;;;;18.07;53.26;101849.63;5088684;28;46211;-72
2022/05/21 03:10:55;;;;;;;;;4.67;2.00;;;;;17.88;53.48;101831.34;5080170;28;45508;-71
2022/05/21 03:13:21;;;;;;;;;2.33;2.33;;;;;17.77;53.43;101814.94;5081521;28;46084;-74
2022/05/21 03:15:46;;;;;;;;;5.67;2.67;;;;;17.98;53.79;101846.81;5076737;28;45317;-71
2022/05/21 03:18:13;;;;;;;;;6.33;2.33;;;;;18.00;53.63;101851.34;5066595;28;45322;-70
2022/05/21 03:20:39;;;;;;;;;2.33;2.33;;;;;18.01;53.39;101836.94;5068702;28;45313;-72
2022/05/21 03:23:05;;;;;;;;;2.00;2.00;;;;;17.93;53.00;101821.50;5089788;28;46085;-71
2022/05/21 03:25:31;;;;;;;;;2.67;2.00;;;;;17.92;53.19;101823.31;5092623;28;45609;-72
2022/05/21 03:27:56;;;;;;;;;4.00;2.00;;;;;18.01;53.02;101833.31;5088541;28;45241;-71
2022/05/21 03:30:24;;;;;;;;;4.00;2.33;;;;;17.89;52.85;101823.25;5085900;28;45213;-71
2022/05/21 03:32:50;;;;;;;;;1.00;1.00;;;;;18.07;53.34;101840.63;5088480;28;46114;-72
2022/05/21 03:35:18;;;;;;;;;3.33;2.00;;;;;18.00;53.44;101827.03;5085415;28;45094;-72
2022/05/21 03:37:44;;;;;;;;;6.67;2.00;;;;;18.05;53.44;101854.13;5089165;28;45131;-75
2022/05/21 03:40:14;;;;;;;;;4.67;1.67;;;;;17.91;53.85;101816.06;5090678;28;45062;-71
2022/05/21 03:42:40;;;;;;;;;1.00;1.00;;;;;17.76;53.42;101805.03;5089507;28;45079;-71
2022/05/21 03:45:06;;;;;;;;;3.33;1.33;;;;;18.00;53.49;101847.72;5092741;28;45119;-71
2022/05/21 03:47:33;;;;;;;;;3.00;2.00;;;;;17.84;53.73;101824.97;5090764;28;45310;-72
2022/05/21 03:49:58;;;;;;;;;3.33;2.00;;;;;17.89;53.63;101835.88;5091545;28;45257;-72
2022/05/21 03:52:24;;;;;;;;;2.67;2.67;;;;;17.94;53.77;101836.84;5091317;28;45659;-71
2022/05/21 03:54:49;;;;;;;;;5.00;3.33;;;;;17.93;53.82;101846.72;5093880;28;45227;-71
2022/05/21 03:57:16;;;;;;;;;4.33;1.67;;;;;17.92;53.23;101849.41;5088779;28;45067;-71
2022/05/21 03:59:42;;;;;;;;;3.00;1.00;;;;;17.95;53.17;101854.88;5091222;28;45088;-70
2022/05/21 04:02:08;;;;;;;;;1.00;1.00;;;;;17.39;53.03;101759.47;5089589;28;45839;-72
2022/05/21 04:04:33;;;;;;;;;4.00;2.00;;;;;17.95;52.69;101844.06;5094344;27;45298;-71
2022/05/21 04:06:59;;;;;;;;;5.00;2.00;;;;;17.99;52.94;101849.53;5090162;28;45262;-72
2022/05/21 04:09:28;;;;;;;;;1.33;1.33;;;;;17.68;52.52;101775.19;5091291;28;45089;-73
2022/05/21 04:11:54;;;;;;;;;2.00;2.00;;;;;17.96;51.99;101822.44;5087880;28;45517;-70
2022/05/21 04:14:20;;;;;;;;;1.00;1.00;;;;;18.13;51.67;101855.13;5090259;28;45190;-71
2022/05/21 04:16:46;;;;;;;;;5.67;2.00;;;;;18.15;51.86;101853.34;5092888;27;45125;-71
2022/05/21 04:19:11;;;;;;;;;2.33;2.33;;;;;18.18;51.53;101848.00;5074819;28;45418;-72
2022/05/21 04:21:36;;;;;;;;;2.67;1.33;;;;;17.86;51.34;101791.63;5092418;28;45654;-71
2022/05/21 04:24:02;;;;;;;;;2.00;1.00;;;;;18.16;50.38;101838.91;5092348;28;45151;-70
2022/05/21 04:26:27;;;;;;;;;3.00;2.00;;;;;18.22;50.20;101844.41;5083985;28;45106;-73
2022/05/21 04:28:52;;;;;;;;;0.33;0.33;;;;;18.26;50.01;101847.16;5087026;28;45084;-72
2022/05/21 04:31:18;;;;;;;;;2.00;1.33;;;;;17.91;49.91;101796.25;5088240;28;47878;-72
2022/05/21 04:33:43;;;;;;;;;2.33;1.00;;;;;18.38;49.86;101856.34;5086508;27;45198;-73
2022/05/21 04:36:17;;;;;;;;;4.67;2.00;;;;;17.80;50.48;101739.28;5087712;28;45325;-72
2022/05/21 04:38:43;;;;;;;;;2.33;1.33;;;;;18.33;50.46;101825.63;5088079;27;45077;-72
2022/05/21 04:41:09;;;;;;;;;2.00;1.00;;;;;18.43;50.34;101851.00;5073869;28;48101;-72
2022/05/21 04:43:35;;;;;;;;;2.00;1.00;;;;;18.28;50.12;101837.25;5081403;28;45676;-70
2022/05/21 04:46:01;;;;;;;;;0.67;0.00;;;;;18.39;50.29;101849.13;5078204;28;45361;-73
2022/05/21 04:48:26;;;;;;;;;1.33;1.33;;;;;18.26;50.44;101817.41;5093797;28;45062;-72
2022/05/21 04:50:51;;;;;;;;;1.00;1.00;;;;;18.17;50.50;101797.47;5086683;28;45501;-71
2022/05/21 04:53:17;;;;;;;;;0.33;0.33;;;;;18.41;50.50;101840.16;5077777;28;45220;-71
2022/05/21 04:55:42;;;;;;;;;3.00;2.33;;;;;17.91;50.74;101750.28;5090804;28;45064;-72
2022/05/21 04:58:08;;;;;;;;;1.00;1.00;;;;;18.40;50.37;101832.91;5089231;27;45377;-72
2022/05/21 05:00:34;;;;;;;;;1.00;1.00;;;;;17.96;49.59;101768.38;5076199;28;46388;-71
2022/05/21 05:03:00;;;;;;;;;0.67;0.67;;;;;18.19;49.42;101811.91;5087226;28;45181;-72
2022/05/21 05:05:25;;;;;;;;;1.67;0.67;;;;;18.22;48.89;101832.69;5087830;28;45136;-72
2022/05/21 05:07:51;;;;;;;;;4.00;2.67;;;;;18.00;49.16;101783.75;5089412;28;45241;-71
2022/05/21 05:10:16;;;;;;;;;2.00;2.00;;;;;18.40;48.73;101842.84;5086367;28;45304;-73
2022/05/21 05:12:41;;;;;;;;;0.00;0.00;;;;;18.47;47.95;101842.00;5081438;28;45674;-71
2022/05/21 05:15:08;;;;;;;;;2.00;1.00;;;;;18.38;47.74;101815.75;5093818;28;44942;-71
2022/05/21 05:17:33;;;;;;;;;1.00;1.00;;;;;18.50;47.69;101820.38;5071587;28;45098;-71
2022/05/21 05:20:00;;;;;;;;;3.33;2.00;;;;;18.45;47.59;101808.63;5093124;28;45621;-73
2022/05/21 05:22:26;;;;;;;;;2.00;1.00;;;;;18.58;47.20;101834.91;5092497;28;46562;-71
2022/05/21 05:24:51;;;;;;;;;2.00;2.00;;;;;18.40;47.12;101819.38;5087226;27;45052;-72
2022/05/21 05:27:17;;;;;;;;;2.33;1.00;;;;;18.33;47.41;101793.16;5087445;27;45116;-71
2022/05/21 05:29:42;;;;;;;;;1.00;1.00;;;;;18.39;47.70;101793.19;5088691;28;45260;-72
2022/05/21 05:32:09;;;;;;;;;1.00;1.00;;;;;18.51;47.81;101808.69;5092832;28;45004;-74
2022/05/21 05:34:35;;;;;;;;;3.00;1.00;;;;;18.36;47.84;101787.78;5088633;28;45447;-73
2022/05/21 05:37:01;;;;;;;;;0.00;0.00;;;;;18.58;47.87;101826.78;5092113;28;45062;-73
2022/05/21 05:39:28;;;;;;;;;1.00;1.00;;;;;18.07;48.31;101738.75;5080727;28;46230;-71
2022/05/21 05:41:55;;;;;;;;;4.00;1.00;;;;;18.49;47.87;101793.31;5090965;28;45092;-72
2022/05/21 05:44:21;;;;;;;;;3.00;1.33;;;;;18.78;47.96;101837.81;5085980;28;45131;-71
2022/05/21 05:46:47;;;;;;;;;2.67;0.67;;;;;18.79;47.48;101831.53;5072345;28;45222;-73
2022/05/21 05:49:13;;;;;;;;;2.00;2.00;;;;;18.85;47.05;101824.38;5089008;28;45740;-71
2022/05/21 05:51:38;;;;;;;;;4.00;2.67;;;;;18.64;47.20;101781.72;5090937;28;45269;-72
2022/05/21 05:54:04;;;;;;;;;3.33;3.33;;;;;18.94;47.06;101838.00;5092753;28;45111;-74
2022/05/21 05:56:29;;;;;;;;;2.00;1.00;;;;;18.90;46.81;101831.66;5085864;28;45376;-71
2022/05/21 06:01:38;;;;;;;;;1.67;1.33;;;;;18.93;47.03;101845.22;5091933;28;45177;-71
2022/05/21 06:04:04;;;;;;;;;4.67;4.67;;;;;18.77;49.59;101832.38;5089925;28;45221;-72
2022/05/21 06:06:31;;;;;;;;;9.00;6.00;;;;;18.77;50.85;101849.53;5086957;28;45115;-72
2022/05/21 06:08:57;;;;;;;;;5.67;4.00;;;;;18.70;51.60;101844.97;5088656;28;46686;-70
2022/05/21 06:11:23;;;;;;;;;4.00;4.00;;;;;18.52;51.69;101817.69;5086413;28;44917;-71
2022/05/21 06:13:48;;;;;;;;;10.67;7.00;;;;;18.33;51.85;101774.22;5090734;28;44996;-70
2022/05/21 06:16:15;;;;;;;;;6.67;4.67;;;;;18.54;52.03;101811.41;5091656;28;45833;-71
2022/05/21 06:18:41;;;;;;;;;6.00;6.00;;;;;18.46;51.60;101794.16;5086804;28;45770;-72
2022/05/21 06:21:07;;;;;;;;;5.00;5.00;;;;;18.24;51.42;101757.88;5088030;28;45278;-71
2022/05/21 06:23:33;;;;;;;;;4.33;4.33;;;;;18.65;51.26;101824.16;5091085;28;45063;-73
2022/05/21 06:26:00;;;;;;;;;5.00;3.33;;;;;18.78;51.18;101835.13;5084554;28;45308;-71
2022/05/21 06:28:26;;;;;;;;;5.67;5.67;;;;;18.82;50.73;101827.03;5090638;28;46189;-71
2022/05/21 06:30:52;;;;;;;;;5.33;4.33;;;;;18.70;50.69;101800.75;5090325;28;45086;-72
2022/05/21 06:33:21;;;;;;;;;4.00;3.00;;;;;18.85;50.70;101840.63;5086613;28;45323;-73
2022/05/21 06:35:47;;;;;;;;;3.33;2.33;;;;;18.79;50.36;101842.34;5086447;28;45369;-72
2022/05/21 06:38:14;;;;;;;;;3.00;3.00;;;;;18.86;50.46;101842.44;5068183;28;47596;-72
2022/05/21 06:40:39;;;;;;;;;3.00;3.00;;;;;18.69;50.38;101799.84;5090064;28;45313;-77
2022/05/21 06:43:05;;;;;;;;;4.67;1.00;;;;;19.00;50.10;101846.19;5090990;28;45004;-73
2022/05/21 06:45:32;;;;;;;;;4.00;4.00;;;;;18.93;49.36;101825.38;5090051;28;45023;-72
2022/05/21 06:48:06;;;;;;;;;4.67;3.33;;;;;19.07;49.13;101849.84;5088654;28;45392;-72
2022/05/21 06:50:32;;;;;;;;;2.67;2.67;;;;;19.02;49.12;101838.06;5076364;28;45270;-79
2022/05/21 06:52:58;;;;;;;;;2.33;2.33;;;;;18.39;49.02;101724.66;5090576;28;46357;-73
2022/05/21 06:55:23;;;;;;;;;5.67;2.00;;;;;19.26;48.47;101840.09;5092002;28;45142;-72
2022/05/21 06:57:50;;;;;;;;;3.33;2.00;;;;;19.14;48.38;101805.69;5091155;28;45586;-74
2022/05/21 07:00:18;;;;;;;;;5.00;3.67;;;;;18.89;47.28;101737.78;5090504;28;45206;-74
2022/05/21 07:02:44;;;;;;;;;2.00;2.00;;;;;19.26;46.97;101807.56;5090769;28;45249;-72
2022/05/21 07:07:54;;;;;;;;;4.00;2.67;;;;;19.49;46.71;101851.09;5087000;28;46152;-81
2022/05/21 07:10:25;;;;;;;;;1.67;1.67;;;;;19.50;46.22;101852.91;5087775;27;46381;-72
2022/05/21 07:12:50;;;;;;;;;2.00;2.00;;;;;19.42;46.69;101850.16;5070018;28;45249;-73
2022/05/21 07:15:17;;;;;;;;;3.00;1.33;;;;;19.39;46.07;101827.56;5089293;28;45214;-72
2022/05/21 07:17:45;;;;;;;;;1.00;1.00;;;;;19.61;45.95;101851.19;5085221;28;45735;-72
2022/05/21 07:20:17;;;;;;;;;2.00;2.00;;;;;19.72;46.34;101855.78;5090491;28;45194;-72
2022/05/21 07:22:44;;;;;;;;;2.00;2.00;;;;;19.77;46.15;101854.03;5087995;28;45337;-74
2022/05/21 07:25:17;;;;;;;;;3.00;3.00;;;;;19.79;45.97;101850.41;5090430;28;45053;-72
2022/05/21 07:27:42;;;;;;;;;7.00;3.67;;;;;19.42;45.97;101792.31;5087340;28;45667;-73
2022/05/21 07:30:09;;;;;;;;;11.67;11.67;;;;;19.72;46.01;101826.84;5083616;28;45410;-74
2022/05/21 07:32:34;;;;;;;;;5.00;4.33;;;;;19.79;45.92;101814.28;5084996;28;45437;-74
2022/05/21 07:35:06;;;;;;;;;4.00;2.00;;;;;20.07;45.95;101846.03;5072452;28;45217;-77
2022/05/21 07:37:33;;;;;;;;;4.00;3.00;;;;;19.88;45.38;101825.16;5082543;28;47055;-73
2022/05/21 07:39:58;;;;;;;;;2.67;1.00;;;;;19.99;45.39;101826.09;5087862;28;45294;-72
2022/05/21 07:42:24;;;;;;;;;4.00;2.33;;;;;20.03;45.59;101844.22;5073105;28;45065;-75
2022/05/21 07:44:49;;;;;;;;;2.67;1.33;;;;;20.12;45.80;101840.66;5089364;28;45163;-76
2022/05/21 07:47:15;;;;;;;;;3.33;3.33;;;;;19.92;44.92;101794.44;5087265;28;45297;-76
2022/05/21 07:49:41;;;;;;;;;3.00;3.00;;;;;20.35;44.82;101851.59;5091730;28;45181;-78
2022/05/21 07:52:06;;;;;;;;;1.67;1.67;;;;;20.39;44.35;101848.00;5092603;28;45220;-72
2022/05/21 07:54:32;;;;;;;;;4.33;3.00;;;;;20.16;44.54;101803.56;5091552;28;44931;-77
2022/05/21 07:56:57;;;;;;;;;2.00;2.00;;;;;20.46;44.82;101853.44;5091328;28;45533;-81
2022/05/21 07:59:23;;;;;;;;;3.00;3.00;;;;;20.37;45.06;101835.31;5091816;28;45019;-77
2022/05/21 08:01:48;;;;;;;;;3.00;3.00;;;;;20.48;44.86;101857.97;5091509;28;44983;-75
2022/05/21 08:04:17;;;;;;;;;2.00;2.00;;;;;20.47;44.63;101844.41;5090859;28;44894;-73
2022/05/21 08:06:42;;;;;;;;;11.67;11.67;;;;;20.29;44.67;101812.66;5090959;28;45799;-78
2022/05/21 08:09:07;;;;;;;;;4.00;2.33;;;;;20.20;45.25;101776.47;5091379;28;45127;-81
2022/05/21 08:11:33;;;;;;;;;1.33;1.33;;;;;20.56;44.90;101848.03;5092749;28;45126;-75
2022/05/21 08:14:01;;;;;;;;;1.00;1.00;;;;;20.19;45.15;101761.06;5092503;28;45032;-73
2022/05/21 08:16:26;;;;;;;;;0.00;0.00;;;;;20.35;44.16;101772.88;5091694;28;45157;-73
2022/05/21 08:18:52;;;;;;;;;1.67;1.00;;;;;20.77;43.30;101841.78;5073195;28;45186;-72
2022/05/21 08:21:17;;;;;;;;;3.00;2.00;;;;;20.41;43.68;101781.03;5091186;28;44926;-83
2022/05/21 08:29:11;;;;;;;;;2.33;2.00;;;;;20.58;43.05;101767.50;5084214;28;45290;-74
2022/05/21 08:31:37;;;;;;;;;3.00;3.00;;;;;20.99;43.21;101823.69;5092805;28;45508;-75
2022/05/21 08:34:02;;;;;;;;;3.00;2.00;;;;;21.18;43.37;101834.56;5090674;28;45005;-79
2022/05/21 08:36:28;;;;;;;;;2.00;2.00;;;;;21.14;42.83;101827.31;5094499;28;45137;-76
2022/05/21 08:38:53;;;;;;;;;2.00;1.00;;;;;21.08;42.87;101817.34;5094744;28;45039;-74
2022/05/21 08:41:22;;;;;;;;;4.00;4.00;;;;;21.18;43.27;101829.13;5094265;28;45011;-74
2022/05/21 08:44:00;;;;;;;;;1.00;1.00;;;;;21.22;43.17;101813.72;5093888;28;45055;-76
2022/05/21 08:46:44;;;;;;;;;7.67;4.67;;;;;21.47;42.66;101831.84;5086958;28;45247;-72
2022/05/21 08:49:24;;;;;;;;;5.00;3.33;;;;;21.55;42.69;101826.41;5087952;28;45146;-75
2022/05/21 08:51:55;;;;;;;;;1.00;1.00;;;;;21.62;42.21;101821.88;5091282;27;45077;-74
2022/05/21 08:54:25;;;;;;;;;2.00;2.00;;;;;21.67;42.26;101834.53;5093356;28;45061;-76
2022/05/21 08:56:54;;;;;;;;;0.67;0.67;;;;;21.53;42.19;101799.22;5093203;28;45275;-77
2022/05/21 08:59:24;;;;;;;;;4.00;3.00;;;;;21.27;42.37;101761.19;5093236;27;45208;-80
2022/05/21 09:01:51;;;;;;;;;4.00;3.00;;;;;21.78;41.79;101834.53;5090322;28;44895;-76
2022/05/21 09:04:16;;;;;;;;;4.33;1.67;;;;;21.80;41.75;101838.13;5093491;28;45177;-73
2022/05/21 09:07:00;;;;;;;;;1.00;1.00;;;;;21.65;41.51;101801.00;5084475;28;45627;-72
2022/05/21 09:09:46;;;;;;;;;2.33;1.00;;;;;21.81;41.64;101825.44;5093099;28;45086;-74
2022/05/21 09:12:19;;;;;;;;;3.00;1.00;;;;;21.73;41.66;101809.16;5089593;28;45017;-79
2022/05/21 09:14:47;;;;;;;;;2.67;2.67;;;;;21.48;41.78;101763.00;5093551;28;45211;-76
2022/05/21 09:17:19;;;;;;;;;2.00;2.00;;;;;21.16;41.73;101697.78;5092741;28;45712;-76
2022/05/21 09:19:50;;;;;;;;;2.00;1.00;;;;;21.86;41.22;101786.44;5070063;28;45757;-73
2022/05/21 09:22:18;;;;;;;;;4.00;3.00;;;;;21.99;41.20;101767.31;5093344;28;45084;-74
2022/05/21 09:24:58;;;;;;;;;6.67;3.67;;;;;22.20;41.24;101797.16;5093453;28;45171;-74
2022/05/21 09:27:42;;;;;;;;;4.00;3.67;;;;;22.26;41.12;101790.78;5091642;28;45334;-73
2022/05/21 09:30:24;;;;;;;;;2.33;2.33;;;;;22.26;41.44;101797.13;5087950;28;45055;-73
2022/05/21 09:32:53;;;;;;;;;4.00;4.00;;;;;22.25;41.16;101788.97;5094409;27;45134;-75
2022/05/21 09:35:24;;;;;;;;;4.00;4.00;;;;;22.26;41.35;101779.91;5095004;28;45148;-73
2022/05/21 09:37:50;;;;;;;;;2.00;2.00;;;;;21.95;41.18;101733.78;5075857;28;47571;-81
2022/05/21 09:40:35;;;;;;;;;1.33;0.67;;;;;22.11;40.64;101739.13;5094097;28;44978;-72
2022/05/21 09:46:20;;;;;;;;;0.67;0.67;;;;;22.17;40.25;101720.06;5093970;28;45139;-76
2022/05/21 09:48:46;;;;;;;;;3.33;2.00;;;;;22.38;40.27;101779.84;5075853;28;47136;-76
2022/05/21 09:51:24;;;;;;;;;2.33;1.00;;;;;22.44;39.94;101765.31;5094620;28;45205;-72
2022/05/21 09:53:51;;;;;;;;;4.67;4.00;;;;;22.38;39.52;101749.91;5093334;28;45096;-74
2022/05/21 09:56:31;;;;;;;;;2.00;2.00;;;;;22.49;39.41;101767.97;5093609;28;44997;-78
2022/05/21 09:59:14;;;;;;;;;3.00;3.00;;;;;22.59;39.28;101767.91;5093150;28;45482;-75
2022/05/21 10:01:48;;;;;;;;;1.00;1.00;;;;;22.17;39.31;101685.56;5090950;28;45071;-74
2022/05/21 10:04:39;;;;;;;;;6.33;3.00;;;;;22.71;39.07;101764.19;5088697;28;45436;-74
2022/05/21 10:13:11;;;;;;;;;6.67;2.33;;;;;22.88;39.22;101755.88;5086854;28;45032;-72
2022/05/21 10:15:40;;;;;;;;;3.00;3.00;;;;;22.36;39.07;101671.88;5070799;28;45077;-79
2022/05/21 10:18:39;;;;;;;;;5.00;5.00;;;;;22.81;38.92;101763.19;5090954;28;45296;-78
2022/05/21 10:21:29;;;;;;;;;6.00;4.33;;;;;22.90;39.02;101759.50;5085379;27;47846;-73
2022/05/21 10:24:05;;;;;;;;;4.67;4.00;;;;;22.79;39.07;101726.88;5091078;28;46491;-74
2022/05/21 10:27:07;;;;;;;;;5.00;3.00;;;;;22.88;38.89;101739.50;5089924;28;45205;-74
2022/05/21 10:29:48;;;;;;;;;3.00;2.00;;;;;22.92;38.47;101745.88;5053495;28;45500;-76
2022/05/21 10:32:28;;;;;;;;;12.67;9.67;;;;;23.01;39.19;101751.22;5091711;28;45428;-72
2022/05/21 10:34:59;;;;;;;;;6.67;3.33;;;;;23.13;39.31;101752.94;5092091;28;45064;-76
2022/05/21 10:37:46;;;;;;;;;3.00;3.00;;;;;23.22;38.64;101758.31;5074051;28;45127;-77
2022/05/21 10:40:45;;;;;;;;;3.00;2.00;;;;;23.31;38.60;101757.31;5088336;28;44921;-73
2022/05/21 10:43:38;;;;;;;;;3.00;2.00;;;;;23.35;38.53;101756.38;5091393;28;45381;-74
2022/05/21 10:46:25;;;;;;;;;5.67;3.33;;;;;23.28;38.93;101747.38;5084453;28;45162;-74
2022/05/21 10:49:02;;;;;;;;;3.67;3.67;;;;;23.28;39.15;101747.38;5092701;28;44960;-74
2022/05/21 10:51:30;;;;;;;;;5.00;3.00;;;;;23.24;38.52;101741.94;5091745;28;45198;-73
2022/05/21 10:54:17;;;;;;;;;6.00;6.00;;;;;23.32;38.95;101750.97;5089485;28;45418;-75
2022/05/21 10:57:23;;;;;;;;;11.67;10.33;;;;;23.39;39.06;101746.34;5064186;28;45480;-78
2022/05/21 11:00:09;;;;;;;;;13.33;10.33;;;;;23.41;38.67;101739.94;5057047;28;45302;-72
2022/05/21 11:02:52;;;;;;;;;5.00;3.33;;;;;23.53;38.76;101733.44;5077329;28;45232;-74
2022/05/21 11:05:33;;;;;;;;;3.00;3.00;;;;;23.55;38.47;101726.16;5089444;28;45285;-74
2022/05/21 11:08:06;;;;;;;;;3.00;2.00;;;;;23.53;38.42;101717.09;5071040;28;45326;-76
2022/05/21 11:10:46;;;;;;;;;3.00;3.00;;;;;23.39;38.59;101703.59;5085455;28;45122;-73
2022/05/21 11:13:29;;;;;;;;;4.00;2.33;;;;;23.46;38.54;101702.63;5056066;28;45068;-73
2022/05/21 11:16:01;;;;;;;;;2.00;2.00;;;;;23.39;38.59;101680.88;5063036;28;47797;-72
2022/05/21 11:18:43;;;;;;;;;1.67;1.67;;;;;23.45;38.25;101672.63;5039312;28;45437;-72
2022/05/21 11:21:19;;;;;;;;;4.00;2.00;;;;;23.67;38.31;101697.81;5058942;28;45734;-72
2022/05/21 11:24:03;;;;;;;;;2.67;2.67;;;;;23.79;38.07;101705.84;5080504;28;45998;-77
2022/05/21 11:26:40;;;;;;;;;4.67;3.00;;;;;23.53;37.85;101659.81;5086349;28;45950;-73
2022/05/21 11:29:24;;;;;;;;;2.00;2.00;;;;;23.88;37.96;101697.56;5087398;28;45082;-72
2022/05/21 11:37:30;;;;;;;;;2.00;2.00;;;;;23.90;37.71;101697.53;5087497;28;46165;-75
2022/05/21 11:39:58;;;;;;;;;3.00;3.00;;;;;23.81;37.87;101667.59;5091122;28;44989;-75
2022/05/21 11:42:28;;;;;;;;;4.00;2.67;;;;;24.03;37.48;101681.88;5088188;28;45100;-72
2022/05/21 11:45:21;;;;;;;;;3.00;3.00;;;;;24.18;37.03;101692.56;5083499;28;45250;-77
2022/05/21 11:47:51;;;;;;;;;3.00;1.33;;;;;23.91;36.42;101607.44;5087232;28;45495;-74
2022/05/21 11:50:20;;;;;;;;;7.33;6.33;;;;;24.43;36.35;101684.00;5085966;28;45468;-74
2022/05/21 11:52:53;;;;;;;;;5.33;1.67;;;;;24.04;36.19;101604.50;5073547;28;45395;-73
2022/05/21 11:55:25;;;;;;;;;3.00;3.00;;;;;24.21;36.42;101637.91;5075930;27;44933;-74
2022/05/21 11:57:55;;;;;;;;;3.33;3.00;;;;;24.39;36.67;101691.34;5081780;28;45457;-74
2022/05/21 12:00:20;;;;;;;;;4.67;2.33;;;;;24.34;37.09;101673.22;5064995;28;45454;-77
2022/05/21 12:02:54;;;;;;;;;3.00;2.67;;;;;24.33;37.28;101669.56;5090876;28;45135;-76
2022/05/21 12:05:37;;;;;;;;;5.00;5.00;;;;;24.35;36.92;101665.00;5092617;28;45069;-74